sensor_id;sensor_type;location;lat;lon;timestamp;pressure;altitude;pressure_sealevel;temperature;humidity
10946;BME280;5525;42.648;23.368;2023-11-18T00:00:21;93999.63;;;5.72;100.00
10946;BME280;5525;42.648;23.368;2023-11-18T00:02:50;93986.69;;;5.65;100.00
10946;BME280;5525;42.648;23.368;2023-11-18T00:05:17;93988.75;;;5.68;100.00
10946;BME280;5525;42.648;23.368;2023-11-18T00:07:44;93996.44;;;5.61;100.00
10946;BME280;5525;42.648;23.368;2023-11-18T00:10:11;93994.22;;;5.63;100.00
10946;BME280;5525;42.648;23.368;2023-11-18T00:12:38;93994.06;;;5.60;100.00
10946;BME280;5525;42.648;23.368;2023-11-18T00:15:07;93993.91;;;5.56;100.00
10946;BME280;5525;42.648;23.368;2023-11-18T00:17:36;94005.56;;;5.60;100.00
10946;BME280;5525;42.648;23.368;2023-11-18T00:20:05;94031.25;;;5.61;100.00
10946;BME280;5525;42.648;23.368;2023-11-18T00:22:34;94037.09;;;5.63;100.00
10946;BME280;5525;42.648;23.368;2023-11-18T00:25:01;94029.63;;;5.52;100.00
10946;BME280;5525;42.648;23.368;2023-11-18T00:27:30;94019.06;;;5.55;100.00
10946;BME280;5525;42.648;23.368;2023-11-18T00:29:57;94005.03;;;5.50;100.00
10946;BME280;5525;42.648;23.368;2023-11-18T00:32:24;94004.44;;;5.53;100.00
10946;BME280;5525;42.648;23.368;2023-11-18T00:34:51;94006.16;;;5.49;100.00
10946;BME280;5525;42.648;23.368;2023-11-18T00:37:19;93997.13;;;5.45;100.00
10946;BME280;5525;42.648;23.368;2023-11-18T00:39:46;94005.84;;;5.50;100.00
10946;BME280;5525;42.648;23.368;2023-11-18T00:42:13;93991.84;;;5.53;100.00
10946;BME280;5525;42.648;23.368;2023-11-18T00:44:39;94008.06;;;5.57;100.00
10946;BME280;5525;42.648;23.368;2023-11-18T00:47:07;93992.47;;;5.50;100.00
10946;BME280;5525;42.648;23.368;2023-11-18T00:49:34;93996.53;;;5.48;100.00
10946;BME280;5525;42.648;23.368;2023-11-18T00:52:02;94000.94;;;5.44;100.00
10946;BME280;5525;42.648;23.368;2023-11-18T00:54:31;94011.56;;;5.35;100.00
10946;BME280;5525;42.648;23.368;2023-11-18T00:56:57;94011.41;;;5.32;100.00
10946;BME280;5525;42.648;23.368;2023-11-18T00:59:24;94007.28;;;5.26;100.00
10946;BME280;5525;42.648;23.368;2023-11-18T01:01:52;94005.22;;;5.22;100.00
10946;BME280;5525;42.648;23.368;2023-11-18T01:04:19;93997.81;;;5.19;100.00
10946;BME280;5525;42.648;23.368;2023-11-18T01:06:46;94011.50;;;5.18;100.00
10946;BME280;5525;42.648;23.368;2023-11-18T01:09:13;94014.94;;;5.18;100.00
10946;BME280;5525;42.648;23.368;2023-11-18T01:11:43;94023.66;;;5.24;100.00
10946;BME280;5525;42.648;23.368;2023-11-18T01:14:09;94002.47;;;5.14;100.00
10946;BME280;5525;42.648;23.368;2023-11-18T01:16:37;94025.94;;;5.17;100.00
10946;BME280;5525;42.648;23.368;2023-11-18T01:19:04;94018.91;;;5.21;100.00
10946;BME280;5525;42.648;23.368;2023-11-18T01:21:34;94029.94;;;5.19;100.00
10946;BME280;5525;42.648;23.368;2023-11-18T01:24:02;94027.06;;;5.16;100.00
10946;BME280;5525;42.648;23.368;2023-11-18T01:26:29;94022.63;;;5.11;100.00
10946;BME280;5525;42.648;23.368;2023-11-18T01:28:57;94026.38;;;5.10;100.00
10946;BME280;5525;42.648;23.368;2023-11-18T01:31:24;94018.97;;;5.07;100.00
10946;BME280;5525;42.648;23.368;2023-11-18T01:33:52;94027.59;;;5.04;100.00
10946;BME280;5525;42.648;23.368;2023-11-18T01:36:20;94038.00;;;5.06;100.00
10946;BME280;5525;42.648;23.368;2023-11-18T01:38:47;94048.69;;;5.06;100.00
10946;BME280;5525;42.648;23.368;2023-11-18T01:41:14;94031.38;;;5.03;100.00
10946;BME280;5525;42.648;23.368;2023-11-18T01:43:41;94023.47;;;4.98;100.00
10946;BME280;5525;42.648;23.368;2023-11-18T01:46:09;94030.22;;;4.96;100.00
10946;BME280;5525;42.648;23.368;2023-11-18T01:48:39;94032.59;;;4.97;100.00
10946;BME280;5525;42.648;23.368;2023-11-18T01:51:07;94027.06;;;4.94;100.00
10946;BME280;5525;42.648;23.368;2023-11-18T01:53:37;94033.00;;;4.91;100.00
10946;BME280;5525;42.648;23.368;2023-11-18T01:56:06;94026.63;;;4.78;100.00
10946;BME280;5525;42.648;23.368;2023-11-18T01:58:35;94034.84;;;4.82;100.00
10946;BME280;5525;42.648;23.368;2023-11-18T02:01:03;94023.22;;;4.86;100.00
10946;BME280;5525;42.648;23.368;2023-11-18T02:03:35;94039.38;;;4.81;100.00
10946;BME280;5525;42.648;23.368;2023-11-18T02:06:04;94007.28;;;4.81;100.00
10946;BME280;5525;42.648;23.368;2023-11-18T02:08:33;94008.50;;;4.75;100.00
10946;BME280;5525;42.648;23.368;2023-11-18T02:11:10;94015.25;;;4.73;100.00
10946;BME280;5525;42.648;23.368;2023-11-18T02:13:40;94043.03;;;4.63;100.00
10946;BME280;5525;42.648;23.368;2023-11-18T02:16:10;94021.75;;;4.58;100.00
10946;BME280;5525;42.648;23.368;2023-11-18T02:18:40;94014.81;;;4.57;100.00
10946;BME280;5525;42.648;23.368;2023-11-18T02:21:10;94032.88;;;4.52;100.00
10946;BME280;5525;42.648;23.368;2023-11-18T02:23:40;93999.91;;;4.43;100.00
10946;BME280;5525;42.648;23.368;2023-11-18T02:26:09;94023.75;;;4.53;100.00
10946;BME280;5525;42.648;23.368;2023-11-18T02:28:36;94029.41;;;4.51;100.00
10946;BME280;5525;42.648;23.368;2023-11-18T02:31:06;94025.75;;;4.47;100.00
10946;BME280;5525;42.648;23.368;2023-11-18T02:33:44;94024.16;;;4.46;100.00
10946;BME280;5525;42.648;23.368;2023-11-18T02:36:21;94013.00;;;4.44;100.00
10946;BME280;5525;42.648;23.368;2023-11-18T02:38:51;94014.66;;;4.40;100.00
10946;BME280;5525;42.648;23.368;2023-11-18T02:41:22;94011.03;;;4.36;100.00
10946;BME280;5525;42.648;23.368;2023-11-18T02:43:49;94008.66;;;4.35;100.00
10946;BME280;5525;42.648;23.368;2023-11-18T02:46:17;94028.13;;;4.35;100.00
10946;BME280;5525;42.648;23.368;2023-11-18T02:48:44;94012.91;;;4.36;100.00
10946;BME280;5525;42.648;23.368;2023-11-18T02:51:11;94025.59;;;4.30;100.00
10946;BME280;5525;42.648;23.368;2023-11-18T02:53:38;94028.44;;;4.34;100.00
10946;BME280;5525;42.648;23.368;2023-11-18T02:56:07;94044.78;;;4.32;100.00
10946;BME280;5525;42.648;23.368;2023-11-18T02:58:36;94040.94;;;4.25;100.00
10946;BME280;5525;42.648;23.368;2023-11-18T03:01:03;94038.84;;;4.22;100.00
10946;BME280;5525;42.648;23.368;2023-11-18T03:03:30;94025.50;;;4.22;100.00
10946;BME280;5525;42.648;23.368;2023-11-18T03:05:57;94037.69;;;4.14;100.00
10946;BME280;5525;42.648;23.368;2023-11-18T03:08:25;94047.88;;;4.12;100.00
10946;BME280;5525;42.648;23.368;2023-11-18T03:10:54;94037.47;;;4.11;100.00
10946;BME280;5525;42.648;23.368;2023-11-18T03:13:21;94044.63;;;4.02;100.00
10946;BME280;5525;42.648;23.368;2023-11-18T03:15:50;94031.34;;;3.97;100.00
10946;BME280;5525;42.648;23.368;2023-11-18T03:18:17;94065.50;;;4.00;100.00
10946;BME280;5525;42.648;23.368;2023-11-18T03:20:44;94066.28;;;4.00;100.00
10946;BME280;5525;42.648;23.368;2023-11-18T03:23:10;94079.34;;;4.02;100.00
10946;BME280;5525;42.648;23.368;2023-11-18T03:25:37;94072.13;;;3.89;100.00
10946;BME280;5525;42.648;23.368;2023-11-18T03:28:04;94064.28;;;3.92;100.00
10946;BME280;5525;42.648;23.368;2023-11-18T03:30:32;94066.56;;;3.85;100.00
10946;BME280;5525;42.648;23.368;2023-11-18T03:33:02;94082.09;;;3.83;100.00
10946;BME280;5525;42.648;23.368;2023-11-18T03:35:29;94091.78;;;3.79;100.00
10946;BME280;5525;42.648;23.368;2023-11-18T03:37:56;94089.13;;;3.66;100.00
10946;BME280;5525;42.648;23.368;2023-11-18T03:40:23;94082.47;;;3.63;100.00
10946;BME280;5525;42.648;23.368;2023-11-18T03:42:50;94072.69;;;3.59;100.00
10946;BME280;5525;42.648;23.368;2023-11-18T03:45:18;94067.56;;;3.62;100.00
10946;BME280;5525;42.648;23.368;2023-11-18T03:47:46;94081.19;;;3.61;100.00
10946;BME280;5525;42.648;23.368;2023-11-18T03:50:14;94084.66;;;3.61;100.00
10946;BME280;5525;42.648;23.368;2023-11-18T03:52:41;94082.88;;;3.57;100.00
10946;BME280;5525;42.648;23.368;2023-11-18T03:55:08;94098.47;;;3.49;100.00
10946;BME280;5525;42.648;23.368;2023-11-18T03:57:35;94089.66;;;3.49;100.00
10946;BME280;5525;42.648;23.368;2023-11-18T04:00:02;94088.16;;;3.43;100.00
10946;BME280;5525;42.648;23.368;2023-11-18T04:02:29;94068.00;;;3.37;100.00
10946;BME280;5525;42.648;23.368;2023-11-18T04:04:56;94084.00;;;3.37;100.00
10946;BME280;5525;42.648;23.368;2023-11-18T04:07:25;94101.69;;;3.33;100.00
10946;BME280;5525;42.648;23.368;2023-11-18T04:09:52;94098.31;;;3.27;100.00
10946;BME280;5525;42.648;23.368;2023-11-18T04:12:19;94101.97;;;3.31;100.00
10946;BME280;5525;42.648;23.368;2023-11-18T04:14:46;94091.53;;;3.35;100.00
10946;BME280;5525;42.648;23.368;2023-11-18T04:17:12;94104.13;;;3.29;100.00
10946;BME280;5525;42.648;23.368;2023-11-18T04:19:39;94098.81;;;3.29;100.00
10946;BME280;5525;42.648;23.368;2023-11-18T04:22:06;94089.31;;;3.23;100.00
10946;BME280;5525;42.648;23.368;2023-11-18T04:24:36;94109.78;;;3.28;100.00
10946;BME280;5525;42.648;23.368;2023-11-18T04:27:03;94106.13;;;3.24;100.00
10946;BME280;5525;42.648;23.368;2023-11-18T04:29:30;94096.22;;;3.24;100.00
10946;BME280;5525;42.648;23.368;2023-11-18T04:31:57;94111.94;;;3.26;100.00
10946;BME280;5525;42.648;23.368;2023-11-18T04:34:25;94112.81;;;3.21;100.00
10946;BME280;5525;42.648;23.368;2023-11-18T04:36:52;94107.00;;;3.19;100.00
10946;BME280;5525;42.648;23.368;2023-11-18T04:39:18;94118.66;;;3.23;100.00
10946;BME280;5525;42.648;23.368;2023-11-18T04:41:48;94107.19;;;3.23;100.00
10946;BME280;5525;42.648;23.368;2023-11-18T04:44:14;94110.44;;;3.20;100.00
10946;BME280;5525;42.648;23.368;2023-11-18T04:46:43;94108.84;;;3.19;100.00
10946;BME280;5525;42.648;23.368;2023-11-18T04:49:10;94117.44;;;3.16;100.00
10946;BME280;5525;42.648;23.368;2023-11-18T04:51:37;94118.88;;;3.08;100.00
10946;BME280;5525;42.648;23.368;2023-11-18T04:54:04;94128.91;;;3.16;100.00
10946;BME280;5525;42.648;23.368;2023-11-18T04:56:33;94111.31;;;3.15;100.00
10946;BME280;5525;42.648;23.368;2023-11-18T04:59:02;94118.31;;;3.11;100.00
10946;BME280;5525;42.648;23.368;2023-11-18T05:01:30;94082.00;;;2.97;100.00
10946;BME280;5525;42.648;23.368;2023-11-18T05:03:57;94108.50;;;3.07;100.00
10946;BME280;5525;42.648;23.368;2023-11-18T05:06:24;94114.13;;;3.05;100.00
10946;BME280;5525;42.648;23.368;2023-11-18T05:08:51;94102.66;;;3.05;100.00
10946;BME280;5525;42.648;23.368;2023-11-18T05:11:18;94112.56;;;3.04;100.00
10946;BME280;5525;42.648;23.368;2023-11-18T05:13:44;94108.00;;;3.05;100.00
10946;BME280;5525;42.648;23.368;2023-11-18T05:16:12;94121.34;;;3.05;100.00
10946;BME280;5525;42.648;23.368;2023-11-18T05:18:39;94118.09;;;3.08;100.00
10946;BME280;5525;42.648;23.368;2023-11-18T05:21:06;94116.53;;;3.07;100.00
10946;BME280;5525;42.648;23.368;2023-11-18T05:23:34;94098.66;;;3.07;100.00
10946;BME280;5525;42.648;23.368;2023-11-18T05:26:00;94114.66;;;3.07;100.00
10946;BME280;5525;42.648;23.368;2023-11-18T05:28:29;94104.06;;;3.02;100.00
10946;BME280;5525;42.648;23.368;2023-11-18T05:30:56;94090.00;;;2.97;100.00
10946;BME280;5525;42.648;23.368;2023-11-18T05:33:28;94110.03;;;2.94;100.00
10946;BME280;5525;42.648;23.368;2023-11-18T05:35:55;94102.34;;;2.93;100.00
10946;BME280;5525;42.648;23.368;2023-11-18T05:38:22;94094.03;;;2.94;100.00
10946;BME280;5525;42.648;23.368;2023-11-18T05:40:52;94077.47;;;2.97;100.00
10946;BME280;5525;42.648;23.368;2023-11-18T05:43:23;94102.56;;;2.96;100.00
10946;BME280;5525;42.648;23.368;2023-11-18T05:45:51;94101.75;;;2.96;100.00
10946;BME280;5525;42.648;23.368;2023-11-18T05:48:52;94102.56;;;2.96;100.00
10946;BME280;5525;42.648;23.368;2023-11-18T05:51:20;94087.91;;;2.94;100.00
10946;BME280;5525;42.648;23.368;2023-11-18T05:53:48;94093.75;;;2.96;100.00
10946;BME280;5525;42.648;23.368;2023-11-18T05:56:16;94084.19;;;2.95;100.00
10946;BME280;5525;42.648;23.368;2023-11-18T05:58:43;94101.53;;;2.92;100.00
10946;BME280;5525;42.648;23.368;2023-11-18T06:01:10;94083.97;;;2.91;100.00
10946;BME280;5525;42.648;23.368;2023-11-18T06:03:37;94086.25;;;2.98;100.00
10946;BME280;5525;42.648;23.368;2023-11-18T06:06:07;94075.88;;;2.96;100.00
10946;BME280;5525;42.648;23.368;2023-11-18T06:08:35;94069.69;;;3.01;100.00
10946;BME280;5525;42.648;23.368;2023-11-18T06:11:02;94089.56;;;3.08;100.00
10946;BME280;5525;42.648;23.368;2023-11-18T06:13:39;94077.16;;;2.99;100.00
10946;BME280;5525;42.648;23.368;2023-11-18T06:16:09;94086.97;;;3.03;100.00
10946;BME280;5525;42.648;23.368;2023-11-18T06:18:40;94097.34;;;3.05;100.00
10946;BME280;5525;42.648;23.368;2023-11-18T06:21:10;94103.91;;;2.94;100.00
10946;BME280;5525;42.648;23.368;2023-11-18T06:23:37;94110.25;;;2.98;100.00
10946;BME280;5525;42.648;23.368;2023-11-18T06:26:04;94118.56;;;2.96;100.00
10946;BME280;5525;42.648;23.368;2023-11-18T06:28:31;94126.25;;;2.98;100.00
10946;BME280;5525;42.648;23.368;2023-11-18T06:30:59;94110.63;;;2.91;100.00
10946;BME280;5525;42.648;23.368;2023-11-18T06:33:26;94115.38;;;2.94;100.00
10946;BME280;5525;42.648;23.368;2023-11-18T06:35:53;94119.59;;;2.95;100.00
10946;BME280;5525;42.648;23.368;2023-11-18T06:38:23;94119.59;;;2.95;100.00
10946;BME280;5525;42.648;23.368;2023-11-18T06:40:50;94126.75;;;3.00;100.00
10946;BME280;5525;42.648;23.368;2023-11-18T06:43:18;94124.28;;;3.03;100.00
10946;BME280;5525;42.648;23.368;2023-11-18T06:45:46;94113.63;;;3.03;100.00
10946;BME280;5525;42.648;23.368;2023-11-18T06:48:15;94128.03;;;3.21;100.00
10946;BME280;5525;42.648;23.368;2023-11-18T06:50:45;94117.78;;;3.28;100.00
10946;BME280;5525;42.648;23.368;2023-11-18T06:53:12;94119.84;;;3.31;100.00
10946;BME280;5525;42.648;23.368;2023-11-18T06:55:42;94127.38;;;3.29;100.00
10946;BME280;5525;42.648;23.368;2023-11-18T06:58:08;94133.13;;;3.36;100.00
10946;BME280;5525;42.648;23.368;2023-11-18T07:00:37;94132.03;;;3.37;100.00
10946;BME280;5525;42.648;23.368;2023-11-18T07:03:04;94132.75;;;3.42;100.00
10946;BME280;5525;42.648;23.368;2023-11-18T07:05:31;94129.41;;;3.51;100.00
10946;BME280;5525;42.648;23.368;2023-11-18T07:07:57;94141.38;;;3.53;100.00
10946;BME280;5525;42.648;23.368;2023-11-18T07:10:24;94138.19;;;3.51;100.00
10946;BME280;5525;42.648;23.368;2023-11-18T07:12:54;94144.25;;;3.57;100.00
10946;BME280;5525;42.648;23.368;2023-11-18T07:15:21;94144.94;;;3.48;100.00
10946;BME280;5525;42.648;23.368;2023-11-18T07:17:48;94149.31;;;3.58;100.00
10946;BME280;5525;42.648;23.368;2023-11-18T07:20:16;94123.19;;;3.55;100.00
10946;BME280;5525;42.648;23.368;2023-11-18T07:22:43;94148.88;;;3.51;100.00
10946;BME280;5525;42.648;23.368;2023-11-18T07:25:10;94154.50;;;3.49;100.00
10946;BME280;5525;42.648;23.368;2023-11-18T07:27:38;94137.19;;;3.33;100.00
10946;BME280;5525;42.648;23.368;2023-11-18T07:30:07;94152.09;;;3.34;100.00
10946;BME280;5525;42.648;23.368;2023-11-18T07:32:36;94148.19;;;3.45;100.00
10946;BME280;5525;42.648;23.368;2023-11-18T07:35:04;94144.00;;;3.39;100.00
10946;BME280;5525;42.648;23.368;2023-11-18T07:37:34;94143.03;;;3.49;100.00
10946;BME280;5525;42.648;23.368;2023-11-18T07:40:03;94143.03;;;3.49;100.00
10946;BME280;5525;42.648;23.368;2023-11-18T07:42:31;94151.47;;;3.56;100.00
10946;BME280;5525;42.648;23.368;2023-11-18T07:45:00;94147.59;;;3.48;100.00
10946;BME280;5525;42.648;23.368;2023-11-18T07:47:30;94140.94;;;3.46;100.00
10946;BME280;5525;42.648;23.368;2023-11-18T07:49:58;94135.75;;;3.55;100.00
10946;BME280;5525;42.648;23.368;2023-11-18T07:52:25;94133.44;;;3.48;100.00
10946;BME280;5525;42.648;23.368;2023-11-18T07:54:53;94135.03;;;3.49;100.00
10946;BME280;5525;42.648;23.368;2023-11-18T07:57:20;94137.88;;;3.39;100.00
10946;BME280;5525;42.648;23.368;2023-11-18T07:59:49;94150.41;;;3.38;100.00
10946;BME280;5525;42.648;23.368;2023-11-18T08:02:15;94140.44;;;3.30;100.00
10946;BME280;5525;42.648;23.368;2023-11-18T08:04:45;94156.13;;;3.32;100.00
10946;BME280;5525;42.648;23.368;2023-11-18T08:07:12;94154.91;;;3.24;100.00
10946;BME280;5525;42.648;23.368;2023-11-18T08:09:39;94161.91;;;3.20;100.00
10946;BME280;5525;42.648;23.368;2023-11-18T08:12:07;94161.09;;;3.20;100.00
10946;BME280;5525;42.648;23.368;2023-11-18T08:14:34;94176.34;;;3.19;100.00
10946;BME280;5525;42.648;23.368;2023-11-18T08:17:03;94171.13;;;3.28;100.00
10946;BME280;5525;42.648;23.368;2023-11-18T08:19:31;94177.78;;;3.30;100.00
10946;BME280;5525;42.648;23.368;2023-11-18T08:22:01;94153.25;;;3.28;100.00
10946;BME280;5525;42.648;23.368;2023-11-18T08:24:29;94152.97;;;3.30;100.00
10946;BME280;5525;42.648;23.368;2023-11-18T08:26:57;94136.16;;;3.29;100.00
10946;BME280;5525;42.648;23.368;2023-11-18T08:29:24;94142.59;;;3.28;100.00
10946;BME280;5525;42.648;23.368;2023-11-18T08:31:56;94155.91;;;3.28;100.00
10946;BME280;5525;42.648;23.368;2023-11-18T08:34:23;94153.66;;;3.35;100.00
10946;BME280;5525;42.648;23.368;2023-11-18T08:36:51;94161.81;;;3.44;100.00
10946;BME280;5525;42.648;23.368;2023-11-18T08:39:19;94151.53;;;3.51;100.00
10946;BME280;5525;42.648;23.368;2023-11-18T08:41:51;94124.69;;;3.61;100.00
10946;BME280;5525;42.648;23.368;2023-11-18T08:44:17;94130.34;;;3.60;100.00
10946;BME280;5525;42.648;23.368;2023-11-18T08:46:44;94136.38;;;3.65;100.00
10946;BME280;5525;42.648;23.368;2023-11-18T08:49:12;94144.97;;;3.76;100.00
10946;BME280;5525;42.648;23.368;2023-11-18T08:51:39;94159.22;;;3.85;100.00
10946;BME280;5525;42.648;23.368;2023-11-18T08:54:07;94174.56;;;3.79;100.00
10946;BME280;5525;42.648;23.368;2023-11-18T08:56:49;94165.88;;;3.74;100.00
10946;BME280;5525;42.648;23.368;2023-11-18T08:59:18;94150.25;;;3.48;100.00
10946;BME280;5525;42.648;23.368;2023-11-18T09:01:56;94161.72;;;3.49;100.00
10946;BME280;5525;42.648;23.368;2023-11-18T09:04:24;94173.78;;;3.46;100.00
10946;BME280;5525;42.648;23.368;2023-11-18T09:06:53;94166.56;;;3.47;100.00
10946;BME280;5525;42.648;23.368;2023-11-18T09:09:25;94162.19;;;3.37;100.00
10946;BME280;5525;42.648;23.368;2023-11-18T09:11:55;94158.78;;;3.51;100.00
10946;BME280;5525;42.648;23.368;2023-11-18T09:14:23;94164.13;;;3.51;100.00
10946;BME280;5525;42.648;23.368;2023-11-18T09:16:51;94149.25;;;3.44;100.00
10946;BME280;5525;42.648;23.368;2023-11-18T09:19:20;94160.94;;;3.48;100.00
10946;BME280;5525;42.648;23.368;2023-11-18T09:21:47;94160.28;;;3.57;100.00
10946;BME280;5525;42.648;23.368;2023-11-18T09:24:14;94159.75;;;3.55;100.00
10946;BME280;5525;42.648;23.368;2023-11-18T09:26:45;94148.09;;;3.51;100.00
10946;BME280;5525;42.648;23.368;2023-11-18T09:29:16;94150.03;;;3.77;100.00
10946;BME280;5525;42.648;23.368;2023-11-18T09:31:45;94167.34;;;3.80;100.00
10946;BME280;5525;42.648;23.368;2023-11-18T09:34:14;94147.84;;;3.66;100.00
10946;BME280;5525;42.648;23.368;2023-11-18T09:36:42;94147.44;;;3.72;100.00
10946;BME280;5525;42.648;23.368;2023-11-18T09:39:10;94137.47;;;3.64;100.00
10946;BME280;5525;42.648;23.368;2023-11-18T09:41:42;94110.56;;;3.61;100.00
10946;BME280;5525;42.648;23.368;2023-11-18T09:44:10;94138.56;;;3.77;100.00
10946;BME280;5525;42.648;23.368;2023-11-18T09:46:42;94140.25;;;3.86;100.00
10946;BME280;5525;42.648;23.368;2023-11-18T09:49:26;94130.88;;;4.02;100.00
10946;BME280;5525;42.648;23.368;2023-11-18T09:51:59;94136.31;;;3.97;100.00
10946;BME280;5525;42.648;23.368;2023-11-18T09:54:34;94094.56;;;3.88;100.00
10946;BME280;5525;42.648;23.368;2023-11-18T09:57:08;94130.66;;;3.85;100.00
10946;BME280;5525;42.648;23.368;2023-11-18T09:59:42;94131.94;;;3.88;100.00
10946;BME280;5525;42.648;23.368;2023-11-18T10:02:12;94148.16;;;3.78;100.00
10946;BME280;5525;42.648;23.368;2023-11-18T10:04:39;94126.66;;;3.69;100.00
10946;BME280;5525;42.648;23.368;2023-11-18T10:07:06;94125.28;;;3.58;100.00
10946;BME280;5525;42.648;23.368;2023-11-18T10:09:35;94155.22;;;3.55;100.00
10946;BME280;5525;42.648;23.368;2023-11-18T10:12:05;94139.22;;;3.55;100.00
10946;BME280;5525;42.648;23.368;2023-11-18T10:14:32;94143.16;;;3.58;100.00
10946;BME280;5525;42.648;23.368;2023-11-18T10:17:03;94157.59;;;3.57;100.00
10946;BME280;5525;42.648;23.368;2023-11-18T10:19:51;94150.78;;;3.51;100.00
10946;BME280;5525;42.648;23.368;2023-11-18T10:22:22;94152.94;;;3.48;100.00
10946;BME280;5525;42.648;23.368;2023-11-18T10:24:50;94148.38;;;3.49;100.00
10946;BME280;5525;42.648;23.368;2023-11-18T10:27:20;94140.34;;;3.49;100.00
10946;BME280;5525;42.648;23.368;2023-11-18T10:29:48;94148.50;;;3.58;100.00
10946;BME280;5525;42.648;23.368;2023-11-18T10:32:17;94140.50;;;3.58;100.00
10946;BME280;5525;42.648;23.368;2023-11-18T10:34:47;94141.91;;;3.69;100.00
10946;BME280;5525;42.648;23.368;2023-11-18T10:37:16;94131.03;;;3.79;100.00
10946;BME280;5525;42.648;23.368;2023-11-18T10:39:46;94120.66;;;3.77;100.00
10946;BME280;5525;42.648;23.368;2023-11-18T10:42:16;94136.69;;;3.91;100.00
10946;BME280;5525;42.648;23.368;2023-11-18T10:44:54;94111.22;;;3.98;100.00
10946;BME280;5525;42.648;23.368;2023-11-18T10:47:24;94124.84;;;4.10;100.00
10946;BME280;5525;42.648;23.368;2023-11-18T10:49:52;94109.59;;;4.11;100.00
10946;BME280;5525;42.648;23.368;2023-11-18T10:52:20;94102.59;;;4.15;100.00
10946;BME280;5525;42.648;23.368;2023-11-18T10:54:52;94101.13;;;4.09;100.00
10946;BME280;5525;42.648;23.368;2023-11-18T10:57:20;94102.09;;;4.26;100.00
10946;BME280;5525;42.648;23.368;2023-11-18T11:00:05;94071.50;;;4.32;100.00
10946;BME280;5525;42.648;23.368;2023-11-18T11:02:38;94070.78;;;4.40;100.00
10946;BME280;5525;42.648;23.368;2023-11-18T11:05:06;94084.84;;;4.46;100.00
10946;BME280;5525;42.648;23.368;2023-11-18T11:07:42;94085.44;;;4.43;100.00
10946;BME280;5525;42.648;23.368;2023-11-18T11:10:09;94066.88;;;4.60;100.00
10946;BME280;5525;42.648;23.368;2023-11-18T11:12:42;94082.94;;;4.60;100.00
10946;BME280;5525;42.648;23.368;2023-11-18T11:15:22;94097.44;;;4.81;100.00
10946;BME280;5525;42.648;23.368;2023-11-18T11:17:53;94076.50;;;4.61;100.00
10946;BME280;5525;42.648;23.368;2023-11-18T11:20:22;94063.31;;;4.29;100.00
10946;BME280;5525;42.648;23.368;2023-11-18T11:23:14;94102.66;;;4.37;100.00
10946;BME280;5525;42.648;23.368;2023-11-18T11:25:55;94104.25;;;4.38;100.00
10946;BME280;5525;42.648;23.368;2023-11-18T11:28:28;94104.88;;;4.35;100.00
10946;BME280;5525;42.648;23.368;2023-11-18T11:31:06;94116.25;;;4.27;100.00
10946;BME280;5525;42.648;23.368;2023-11-18T11:33:43;94110.31;;;4.16;100.00
10946;BME280;5525;42.648;23.368;2023-11-18T11:36:21;94101.59;;;3.97;100.00
10946;BME280;5525;42.648;23.368;2023-11-18T11:38:54;94104.44;;;4.28;100.00
10946;BME280;5525;42.648;23.368;2023-11-18T11:41:23;94118.81;;;4.18;100.00
10946;BME280;5525;42.648;23.368;2023-11-18T11:43:52;94094.75;;;4.05;100.00
10946;BME280;5525;42.648;23.368;2023-11-18T11:46:25;94099.91;;;3.88;100.00
10946;BME280;5525;42.648;23.368;2023-11-18T11:48:58;94103.66;;;4.00;100.00
10946;BME280;5525;42.648;23.368;2023-11-18T11:51:37;94104.47;;;4.01;100.00
10946;BME280;5525;42.648;23.368;2023-11-18T11:54:11;94101.88;;;4.09;100.00
10946;BME280;5525;42.648;23.368;2023-11-18T11:56:44;94102.69;;;3.96;100.00
10946;BME280;5525;42.648;23.368;2023-11-18T11:59:15;94108.72;;;4.15;100.00
10946;BME280;5525;42.648;23.368;2023-11-18T12:01:42;94098.03;;;4.15;100.00
10946;BME280;5525;42.648;23.368;2023-11-18T12:04:12;94132.47;;;4.44;100.00
10946;BME280;5525;42.648;23.368;2023-11-18T12:06:47;94107.91;;;4.42;100.00
10946;BME280;5525;42.648;23.368;2023-11-18T12:09:20;94118.09;;;4.40;100.00
10946;BME280;5525;42.648;23.368;2023-11-18T12:11:47;94120.00;;;4.39;100.00
10946;BME280;5525;42.648;23.368;2023-11-18T12:14:15;94135.22;;;4.52;100.00
10946;BME280;5525;42.648;23.368;2023-11-18T12:17:07;94115.91;;;5.49;100.00
10946;BME280;5525;42.648;23.368;2023-11-18T12:19:35;94126.63;;;4.91;100.00
10946;BME280;5525;42.648;23.368;2023-11-18T12:22:13;94116.78;;;5.00;100.00
10946;BME280;5525;42.648;23.368;2023-11-18T12:24:47;94117.41;;;4.34;100.00
10946;BME280;5525;42.648;23.368;2023-11-18T12:27:42;94137.31;;;4.01;100.00
10946;BME280;5525;42.648;23.368;2023-11-18T12:30:37;94143.53;;;3.97;100.00
10946;BME280;5525;42.648;23.368;2023-11-18T12:33:08;94132.84;;;3.97;100.00
10946;BME280;5525;42.648;23.368;2023-11-18T12:35:44;94147.59;;;4.08;100.00
10946;BME280;5525;42.648;23.368;2023-11-18T12:38:35;94128.88;;;3.94;100.00
10946;BME280;5525;42.648;23.368;2023-11-18T12:41:22;94143.72;;;4.00;100.00
10946;BME280;5525;42.648;23.368;2023-11-18T12:44:12;94124.81;;;3.97;100.00
10946;BME280;5525;42.648;23.368;2023-11-18T12:46:49;94138.97;;;3.84;100.00
10946;BME280;5525;42.648;23.368;2023-11-18T12:49:19;94126.50;;;3.79;100.00
10946;BME280;5525;42.648;23.368;2023-11-18T12:51:49;94125.41;;;3.80;100.00
10946;BME280;5525;42.648;23.368;2023-11-18T12:54:17;94134.09;;;3.72;100.00
10946;BME280;5525;42.648;23.368;2023-11-18T12:56:46;94124.22;;;3.73;100.00
10946;BME280;5525;42.648;23.368;2023-11-18T12:59:15;94104.47;;;3.74;100.00
10946;BME280;5525;42.648;23.368;2023-11-18T13:01:44;94129.09;;;3.84;100.00
10946;BME280;5525;42.648;23.368;2023-11-18T13:04:17;94127.41;;;4.02;100.00
10946;BME280;5525;42.648;23.368;2023-11-18T13:06:45;94136.63;;;4.09;100.00
10946;BME280;5525;42.648;23.368;2023-11-18T13:09:14;94130.09;;;4.15;100.00
10946;BME280;5525;42.648;23.368;2023-11-18T13:11:53;94133.47;;;4.21;100.00